createdAt,value
2018-11-05T00:02:02.114Z,41.95
2018-11-05T00:04:30.412Z,37.70
2018-11-05T00:06:58.674Z,40.15
2018-11-05T00:09:27.131Z,36.83
2018-11-05T00:11:55.755Z,39.58
2018-11-05T00:14:24.114Z,36.60
2018-11-05T00:16:52.370Z,36.38
2018-11-05T00:19:20.717Z,38.58
2018-11-05T00:21:49.283Z,38.67
2018-11-05T00:24:17.600Z,40.58
2018-11-05T00:26:45.920Z,41.30
2018-11-05T00:29:14.381Z,35.38
2018-11-05T00:31:42.723Z,45.55
2018-11-05T00:34:11.042Z,49.03
2018-11-05T00:36:39.278Z,42.80
2018-11-05T00:39:10.072Z,41.70
2018-11-05T00:41:38.592Z,40.38
2018-11-05T00:44:06.859Z,38.98
2018-11-05T00:46:35.188Z,37.42
2018-11-05T00:49:04.121Z,36.35
2018-11-05T00:51:32.399Z,46.42
2018-11-05T00:54:00.628Z,40.55
2018-11-05T00:56:29.379Z,41.53
2018-11-05T00:58:57.659Z,37.85
2018-11-05T01:01:25.987Z,42.25
2018-11-05T01:03:54.256Z,40.98
2018-11-05T01:06:23.603Z,36.80
2018-11-05T01:08:51.931Z,38.10
2018-11-05T01:11:20.222Z,35.05
2018-11-05T01:13:49.029Z,36.23
2018-11-05T01:16:17.370Z,38.67
2018-11-05T01:18:45.716Z,35.28
2018-11-05T01:21:14.554Z,37.15
2018-11-05T01:23:42.877Z,35.83
2018-11-05T01:26:11.382Z,38.05
2018-11-05T01:28:40.270Z,30.48
2018-11-05T01:31:08.926Z,33.15
2018-11-05T01:33:37.274Z,32.25
2018-11-05T01:36:05.507Z,31.15
2018-11-05T01:38:34.996Z,34.55
2018-11-05T01:41:04.267Z,32.35
2018-11-05T01:43:32.864Z,30.05
2018-11-05T01:46:01.946Z,30.68
2018-11-05T01:48:30.206Z,33.83
2018-11-05T01:50:59.037Z,33.48
2018-11-05T01:53:27.378Z,30.57
2018-11-05T01:55:55.714Z,29.67
2018-11-05T01:58:24.067Z,28.80
2018-11-05T02:00:52.472Z,30.52
2018-11-05T02:03:20.815Z,29.00
2018-11-05T02:05:49.138Z,29.90
2018-11-05T02:08:17.571Z,25.77
2018-11-05T02:10:45.944Z,30.15
2018-11-05T02:13:14.342Z,31.70
2018-11-05T02:15:43.000Z,26.97
2018-11-05T02:18:11.549Z,29.02
2018-11-05T02:20:40.077Z,36.35
2018-11-05T02:23:08.486Z,31.42
2018-11-05T02:25:37.142Z,32.60
2018-11-05T02:28:05.770Z,33.60
2018-11-05T02:30:34.649Z,28.27
2018-11-05T02:33:03.662Z,29.48
2018-11-05T02:35:32.157Z,29.63
2018-11-05T02:38:00.791Z,32.50
2018-11-05T02:40:29.303Z,25.27
2018-11-05T02:42:58.084Z,29.85
2018-11-05T02:45:26.820Z,34.27
2018-11-05T02:47:56.003Z,30.80
2018-11-05T02:50:24.465Z,29.42
2018-11-05T02:52:52.979Z,28.70
2018-11-05T02:55:21.298Z,33.92
2018-11-05T02:57:49.824Z,35.20
2018-11-05T03:00:19.271Z,30.12
2018-11-05T03:02:47.846Z,34.15
2018-11-05T03:05:17.884Z,25.27
2018-11-05T03:07:46.847Z,31.17
2018-11-05T03:10:15.376Z,28.73
2018-11-05T03:12:44.275Z,26.68
2018-11-05T03:15:14.046Z,26.73
2018-11-05T03:17:42.669Z,27.37
2018-11-05T03:20:12.094Z,23.90
2018-11-05T03:22:40.991Z,26.97
2018-11-05T03:25:09.962Z,29.90
2018-11-05T03:27:38.730Z,25.77
2018-11-05T03:30:09.416Z,24.52
2018-11-05T03:32:37.608Z,29.35
2018-11-05T03:35:06.696Z,26.48
2018-11-05T03:37:34.912Z,24.10
2018-11-05T03:40:03.235Z,27.87
2018-11-05T03:42:31.637Z,31.27
2018-11-05T03:45:00.068Z,26.48
2018-11-05T03:47:28.269Z,26.17
2018-11-05T03:49:56.691Z,32.15
2018-11-05T03:52:25.022Z,26.10
2018-11-05T03:54:53.272Z,28.57
2018-11-05T03:57:21.647Z,32.25
2018-11-05T03:59:50.087Z,26.50
2018-11-05T04:02:18.428Z,33.78
2018-11-05T04:04:46.866Z,27.25
2018-11-05T04:07:15.307Z,25.77
2018-11-05T04:09:43.665Z,32.38
2018-11-05T04:12:12.006Z,32.30
2018-11-05T04:14:40.387Z,32.85
2018-11-05T04:17:08.729Z,29.70
2018-11-05T04:19:37.472Z,30.35
2018-11-05T04:22:05.921Z,26.20
2018-11-05T04:24:34.279Z,20.43
2018-11-05T04:27:02.711Z,19.35
2018-11-05T04:29:31.127Z,19.35
2018-11-05T04:31:59.498Z,22.58
2018-11-05T04:34:27.831Z,20.85
2018-11-05T04:36:56.164Z,24.70
2018-11-05T04:39:25.431Z,27.42
2018-11-05T04:41:53.734Z,21.90
2018-11-05T04:44:22.223Z,22.95
2018-11-05T04:46:50.547Z,23.92
2018-11-05T04:49:18.931Z,20.40
2018-11-05T04:51:47.241Z,29.95
2018-11-05T04:54:15.592Z,22.50
2018-11-05T04:56:43.899Z,23.52
2018-11-05T04:59:12.181Z,26.48
2018-11-05T05:01:40.523Z,26.48
2018-11-05T05:04:09.026Z,24.30
2018-11-05T05:06:37.239Z,20.50
2018-11-05T05:09:08.906Z,22.42
2018-11-05T05:11:37.390Z,21.55
2018-11-05T05:14:07.452Z,23.20
2018-11-05T05:16:35.824Z,22.25
2018-11-05T05:19:04.127Z,19.48
2018-11-05T05:21:32.699Z,22.80
2018-11-05T05:24:01.911Z,24.95
2018-11-05T05:26:30.282Z,26.55
2018-11-05T05:28:58.607Z,23.20
2018-11-05T05:31:27.317Z,24.55
2018-11-05T05:33:56.083Z,25.27
2018-11-05T05:36:24.993Z,20.62
2018-11-05T05:38:53.928Z,22.80
2018-11-05T05:41:22.871Z,25.80
2018-11-05T05:43:51.400Z,22.75
2018-11-05T05:46:19.681Z,26.23
2018-11-05T05:48:48.974Z,23.60
2018-11-05T05:51:17.515Z,22.95
2018-11-05T05:53:46.712Z,21.17
2018-11-05T05:56:15.564Z,24.70
2018-11-05T05:58:44.401Z,21.85
2018-11-05T06:01:12.653Z,23.05
2018-11-05T06:03:40.834Z,21.07
2018-11-05T06:06:12.515Z,22.40
2018-11-05T06:08:40.796Z,24.00
2018-11-05T06:11:09.221Z,20.00
2018-11-05T06:13:37.403Z,22.70
2018-11-05T06:16:05.827Z,23.22
2018-11-05T06:18:33.995Z,25.50
2018-11-05T06:21:02.219Z,20.40
2018-11-05T06:23:30.408Z,28.77
2018-11-05T06:25:58.619Z,21.93
2018-11-05T06:28:26.880Z,22.85
2018-11-05T06:30:55.038Z,25.50
2018-11-05T06:33:23.293Z,22.80
2018-11-05T06:35:51.522Z,21.85
2018-11-05T06:40:54.426Z,24.02
2018-11-05T06:43:22.948Z,26.70
2018-11-05T06:45:51.491Z,33.18
2018-11-05T06:48:19.931Z,32.00
2018-11-05T06:50:48.573Z,30.40
2018-11-05T06:53:17.371Z,31.15
2018-11-05T06:55:45.579Z,30.30
2018-11-05T06:58:13.799Z,24.60
2018-11-05T07:00:42.650Z,33.58
2018-11-05T07:03:10.838Z,28.15
2018-11-05T07:05:39.070Z,26.93
2018-11-05T07:08:07.441Z,25.08
2018-11-05T07:10:35.671Z,26.93
2018-11-05T07:13:03.858Z,23.57
2018-11-05T07:15:32.281Z,23.47
2018-11-05T07:18:00.906Z,24.57
2018-11-05T07:20:29.105Z,30.15
2018-11-05T07:22:57.287Z,27.58
2018-11-05T07:25:25.794Z,24.00
2018-11-05T07:27:54.038Z,25.27
2018-11-05T07:30:23.549Z,26.60
2018-11-05T07:32:53.129Z,28.95
2018-11-05T07:35:21.391Z,21.33
2018-11-05T07:37:49.601Z,23.07
2018-11-05T07:40:18.708Z,21.68
2018-11-05T07:42:47.071Z,22.82
2018-11-05T07:45:17.173Z,26.65
2018-11-05T07:47:46.088Z,25.35
2018-11-05T07:50:15.279Z,23.80
2018-11-05T07:52:43.492Z,19.48
2018-11-05T07:55:13.264Z,22.30
2018-11-05T07:57:42.574Z,21.65
2018-11-05T08:00:17.725Z,27.07
2018-11-05T08:02:46.905Z,22.65
2018-11-05T08:05:16.216Z,29.90
2018-11-05T08:07:44.530Z,25.35
2018-11-05T08:10:12.895Z,27.22
2018-11-05T08:12:41.787Z,34.30
2018-11-05T08:15:12.926Z,23.65
2018-11-05T08:17:42.189Z,30.77
2018-11-05T08:20:10.780Z,23.05
2018-11-05T08:22:39.489Z,29.35
2018-11-05T08:25:08.337Z,25.88
2018-11-05T08:27:36.789Z,29.82
2018-11-05T08:30:07.706Z,25.65
2018-11-05T08:32:35.947Z,22.30
2018-11-05T08:35:04.609Z,25.23
2018-11-05T08:37:32.942Z,23.12
2018-11-05T08:40:01.281Z,21.50
2018-11-05T08:42:29.474Z,21.15
2018-11-05T08:44:57.919Z,21.33
2018-11-05T08:47:26.302Z,22.77
2018-11-05T08:49:54.836Z,27.70
2018-11-05T08:52:23.151Z,20.88
2018-11-05T08:54:51.331Z,22.15
2018-11-05T08:57:19.525Z,21.87
2018-11-05T08:59:47.702Z,23.83
2018-11-05T09:02:15.893Z,21.90
2018-11-05T09:04:44.187Z,23.57
2018-11-05T09:07:12.330Z,21.23
2018-11-05T09:09:40.538Z,21.00
2018-11-05T09:12:08.727Z,21.52
2018-11-05T09:14:36.893Z,26.73
2018-11-05T09:17:05.481Z,22.50
2018-11-05T09:19:33.705Z,22.90
2018-11-05T09:22:02.105Z,21.65
2018-11-05T09:24:30.301Z,20.03
2018-11-05T09:26:58.482Z,24.18
2018-11-05T09:29:26.703Z,19.27
2018-11-05T09:31:55.090Z,18.80
2018-11-05T09:34:23.325Z,22.00
2018-11-05T09:36:51.738Z,20.77
2018-11-05T09:39:19.939Z,22.57
2018-11-05T09:41:48.121Z,21.67
2018-11-05T09:44:16.310Z,18.40
2018-11-05T09:46:44.507Z,20.83
2018-11-05T09:49:12.693Z,21.12
2018-11-05T09:51:40.882Z,20.13
2018-11-05T09:54:09.281Z,28.23
2018-11-05T09:56:37.482Z,19.67
2018-11-05T09:59:05.670Z,35.07
2018-11-05T10:01:34.339Z,33.45
2018-11-05T10:04:02.644Z,21.13
2018-11-05T10:06:30.831Z,20.40
2018-11-05T10:08:59.003Z,22.70
2018-11-05T10:11:27.229Z,18.70
2018-11-05T10:13:55.397Z,20.63
2018-11-05T10:16:23.636Z,22.00
2018-11-05T10:18:51.782Z,19.57
2018-11-05T10:21:19.978Z,22.03
2018-11-05T10:23:48.149Z,20.10
2018-11-05T10:26:16.421Z,20.90
2018-11-05T10:28:44.757Z,19.00
2018-11-05T10:31:17.177Z,22.17
2018-11-05T10:33:49.689Z,21.40
2018-11-05T10:36:17.823Z,20.83
2018-11-05T10:38:46.006Z,32.13
2018-11-05T10:41:14.255Z,20.43
2018-11-05T10:43:42.492Z,20.87
2018-11-05T10:46:10.749Z,20.80
2018-11-05T10:48:39.004Z,24.20
2018-11-05T10:51:07.292Z,24.03
2018-11-05T10:53:35.393Z,23.20
2018-11-05T10:56:03.663Z,21.23
2018-11-05T10:58:31.862Z,19.40
2018-11-05T11:01:05.477Z,19.60
2018-11-05T11:03:34.512Z,22.80
2018-11-05T11:06:03.680Z,19.20
2018-11-05T11:08:32.194Z,18.57
2018-11-05T11:11:00.358Z,17.93
2018-11-05T11:13:28.551Z,20.27
2018-11-05T11:15:56.772Z,20.63
2018-11-05T11:18:24.987Z,18.67
2018-11-05T11:20:53.166Z,19.95
2018-11-05T11:23:21.370Z,21.53
2018-11-05T11:25:49.546Z,20.50
2018-11-05T11:28:18.808Z,20.47
2018-11-05T11:30:46.931Z,20.80
2018-11-05T11:33:15.126Z,22.53
2018-11-05T11:35:43.310Z,21.77
2018-11-05T11:38:11.546Z,20.43
2018-11-05T11:40:39.717Z,18.33
2018-11-05T11:43:07.901Z,20.10
2018-11-05T11:45:36.294Z,19.63
2018-11-05T11:48:05.345Z,19.50
2018-11-05T11:50:33.530Z,21.37
2018-11-05T11:53:01.804Z,19.07
2018-11-05T11:55:29.905Z,20.90
2018-11-05T11:57:58.366Z,22.70
2018-11-05T12:00:26.506Z,22.57
2018-11-05T12:02:54.954Z,18.87
2018-11-05T12:05:23.163Z,20.97
2018-11-05T12:07:51.434Z,18.87
2018-11-05T12:10:22.068Z,21.60
2018-11-05T12:12:50.844Z,20.80
2018-11-05T12:15:20.190Z,17.17
2018-11-05T12:17:49.789Z,17.77
2018-11-05T12:20:21.972Z,17.67
2018-11-05T12:22:50.691Z,18.80
2018-11-05T12:25:20.180Z,18.70
2018-11-05T12:27:48.966Z,17.83
2018-11-05T12:30:20.272Z,19.77
2018-11-05T12:32:49.353Z,18.77
2018-11-05T12:35:18.004Z,19.60
2018-11-05T12:37:47.894Z,16.83
2018-11-05T12:40:17.288Z,18.83
2018-11-05T12:42:46.656Z,22.10
2018-11-05T12:45:15.100Z,16.97
2018-11-05T12:47:43.485Z,18.33
2018-11-05T12:50:14.498Z,13.67
2018-11-05T12:52:43.715Z,18.77
2018-11-05T12:55:12.178Z,14.97
2018-11-05T12:57:40.551Z,18.53
2018-11-05T13:00:11.842Z,17.50
2018-11-05T13:02:40.262Z,15.87
2018-11-05T13:05:09.238Z,16.40
2018-11-05T13:07:37.881Z,12.50
2018-11-05T13:10:08.446Z,18.03
2018-11-05T13:12:36.746Z,20.67
2018-11-05T13:15:05.893Z,15.57
2018-11-05T13:17:34.150Z,13.73
2018-11-05T13:20:02.423Z,13.00
2018-11-05T13:22:30.643Z,15.50
2018-11-05T13:24:58.827Z,15.83
2018-11-05T13:27:27.018Z,15.83
2018-11-05T13:29:55.324Z,16.20
2018-11-05T13:32:23.500Z,16.80
2018-11-05T13:34:52.314Z,14.63
2018-11-05T13:37:21.129Z,15.27
2018-11-05T13:39:49.082Z,17.13
2018-11-05T13:42:17.273Z,14.90
2018-11-05T13:44:45.665Z,18.93
2018-11-05T13:47:14.562Z,14.33
2018-11-05T13:49:42.177Z,17.27
2018-11-05T13:52:10.292Z,15.03
2018-11-05T13:54:38.720Z,18.37
2018-11-05T13:57:06.721Z,13.70
2018-11-05T13:59:34.955Z,14.43
2018-11-05T14:02:03.268Z,14.30
2018-11-05T14:04:31.480Z,14.63
2018-11-05T14:06:59.646Z,14.27
2018-11-05T14:09:27.854Z,17.53
2018-11-05T14:11:56.030Z,16.87
2018-11-05T14:14:24.194Z,15.00
2018-11-05T14:16:52.389Z,13.63
2018-11-05T14:19:20.570Z,17.50
2018-11-05T14:21:48.764Z,16.33
2018-11-05T14:24:17.007Z,14.53
2018-11-05T14:26:45.199Z,17.57
2018-11-05T14:29:13.797Z,15.27
2018-11-05T14:31:41.589Z,18.43
2018-11-05T14:34:09.990Z,16.70
2018-11-05T14:36:38.772Z,17.50
2018-11-05T14:39:09.762Z,17.40
2018-11-05T14:41:38.192Z,16.53
2018-11-05T14:44:06.503Z,11.53
2018-11-05T14:46:34.873Z,13.70
2018-11-05T14:49:05.833Z,14.47
2018-11-05T14:51:34.929Z,15.80
2018-11-05T14:54:03.162Z,15.10
2018-11-05T14:56:31.376Z,14.50
2018-11-05T14:58:59.680Z,14.27
2018-11-05T15:01:27.862Z,21.47
2018-11-05T15:03:56.102Z,17.90
2018-11-05T15:06:24.309Z,15.87
2018-11-05T15:08:52.529Z,22.27
2018-11-05T15:11:21.062Z,14.00
2018-11-05T15:13:49.261Z,17.40
2018-11-05T15:16:17.463Z,13.23
2018-11-05T15:18:46.009Z,15.20
2018-11-05T15:21:13.937Z,21.20
2018-11-05T15:23:42.062Z,16.93
2018-11-05T15:26:10.543Z,15.00
2018-11-05T15:28:38.675Z,18.27
2018-11-05T15:31:06.894Z,14.30
2018-11-05T15:33:35.124Z,12.83
2018-11-05T15:36:03.344Z,13.40
2018-11-05T15:38:31.542Z,33.13
2018-11-05T15:40:59.736Z,14.33
2018-11-05T15:43:27.946Z,20.30
2018-11-05T15:45:56.137Z,21.97
2018-11-05T15:48:24.350Z,17.40
2018-11-05T15:50:52.576Z,17.32
2018-11-05T15:53:21.313Z,15.45
2018-11-05T15:55:49.070Z,17.00
2018-11-05T15:58:17.292Z,18.30
2018-11-05T16:00:45.706Z,16.77
2018-11-05T16:03:14.127Z,15.58
2018-11-05T16:05:42.411Z,17.70
2018-11-05T16:08:10.866Z,14.53
2018-11-05T16:10:39.289Z,23.62
2018-11-05T16:13:07.578Z,16.75
2018-11-05T16:15:35.990Z,20.25
2018-11-05T16:18:04.329Z,17.37
2018-11-05T16:20:32.626Z,28.90
2018-11-05T16:23:00.838Z,16.82
2018-11-05T16:25:29.064Z,15.40
2018-11-05T16:27:57.282Z,14.73
2018-11-05T16:30:25.591Z,19.10
2018-11-05T16:32:53.805Z,19.48
2018-11-05T16:35:22.577Z,17.10
2018-11-05T16:37:50.890Z,20.02
2018-11-05T16:40:19.977Z,19.40
2018-11-05T16:42:49.823Z,17.70
2018-11-05T16:45:18.151Z,22.13
2018-11-05T16:47:47.158Z,17.37
2018-11-05T16:50:25.721Z,20.37
2018-11-05T16:52:54.022Z,21.15
2018-11-05T16:55:22.241Z,18.15
2018-11-05T16:57:50.492Z,22.62
2018-11-05T17:00:18.821Z,21.00
2018-11-05T17:02:47.914Z,21.57
2018-11-05T17:05:16.111Z,23.18
2018-11-05T17:07:44.318Z,19.05
2018-11-05T17:10:13.601Z,20.95
2018-11-05T17:12:42.505Z,21.13
2018-11-05T17:15:13.030Z,19.45
2018-11-05T17:17:42.160Z,18.07
2018-11-05T17:20:12.073Z,18.23
2018-11-05T17:22:40.813Z,18.12
2018-11-05T17:25:09.612Z,22.20
2018-11-05T17:27:38.106Z,22.00
2018-11-05T17:30:09.566Z,21.55
2018-11-05T17:32:37.863Z,24.85
2018-11-05T17:35:06.371Z,22.10
2018-11-05T17:37:34.588Z,20.65
2018-11-05T17:40:02.846Z,22.80
2018-11-05T17:42:31.189Z,22.55
2018-11-05T17:44:59.396Z,24.23
2018-11-05T17:47:27.640Z,25.12
2018-11-05T17:49:56.730Z,23.77
2018-11-05T17:52:25.640Z,24.90
2018-11-05T17:54:53.922Z,25.35
2018-11-05T17:57:22.190Z,27.73
2018-11-05T17:59:50.719Z,21.27
2018-11-05T18:02:22.778Z,26.70
2018-11-05T18:04:52.306Z,26.52
2018-11-05T18:07:20.690Z,25.55
2018-11-05T18:09:49.059Z,41.05
2018-11-05T18:12:17.384Z,26.40
2018-11-05T18:14:45.618Z,27.98
2018-11-05T18:17:13.874Z,23.30
2018-11-05T18:19:42.158Z,26.25
2018-11-05T18:22:10.358Z,23.70
2018-11-05T18:24:38.554Z,25.23
2018-11-05T18:27:06.795Z,26.00
2018-11-05T18:29:35.047Z,29.27
2018-11-05T18:32:03.242Z,28.50
2018-11-05T18:34:31.466Z,25.35
2018-11-05T18:37:00.240Z,28.15
2018-11-05T18:39:28.714Z,22.75
2018-11-05T18:41:56.927Z,23.50
2018-11-05T18:44:25.616Z,32.15
2018-11-05T18:46:54.142Z,28.73
2018-11-05T18:49:22.444Z,31.17
2018-11-05T18:51:51.096Z,31.52
2018-11-05T18:54:19.283Z,27.30
2018-11-05T18:56:47.966Z,28.67
2018-11-05T18:59:16.202Z,27.32
2018-11-05T19:01:44.419Z,24.52
2018-11-05T19:04:12.644Z,24.07
2018-11-05T19:06:40.859Z,28.25
2018-11-05T19:09:09.061Z,27.95
2018-11-05T19:11:37.365Z,23.10
2018-11-05T19:14:05.625Z,24.47
2018-11-05T19:16:34.171Z,25.35
2018-11-05T19:19:02.465Z,25.72
2018-11-05T19:21:30.684Z,26.68
2018-11-05T19:23:59.360Z,25.97
2018-11-05T19:26:27.413Z,29.18
2018-11-05T19:28:55.642Z,30.35
2018-11-05T19:31:23.865Z,28.15
2018-11-05T19:33:52.274Z,28.60
2018-11-05T19:36:20.490Z,36.60
2018-11-05T19:38:48.909Z,25.12
2018-11-05T19:41:17.182Z,31.00
2018-11-05T19:43:45.403Z,27.05
2018-11-05T19:46:13.747Z,34.05
2018-11-05T19:48:41.956Z,30.72
2018-11-05T19:51:10.439Z,30.68
2018-11-05T19:53:38.736Z,32.98
2018-11-05T19:56:07.586Z,33.92
2018-11-05T19:58:35.864Z,35.10
2018-11-05T20:01:04.245Z,30.77
2018-11-05T20:03:32.472Z,43.95
2018-11-05T20:06:01.267Z,33.23
2018-11-05T20:08:29.530Z,36.58
2018-11-05T20:10:57.714Z,32.28
2018-11-05T20:13:26.167Z,34.23
2018-11-05T20:15:54.351Z,38.38
2018-11-05T20:18:22.643Z,32.90
2018-11-05T20:20:50.868Z,30.90
2018-11-05T20:23:19.043Z,34.27
2018-11-05T20:25:47.470Z,38.48
2018-11-05T20:28:15.723Z,37.48
2018-11-05T20:30:43.934Z,42.10
2018-11-05T20:33:12.415Z,40.03
2018-11-05T20:35:40.474Z,41.70
2018-11-05T20:38:08.754Z,42.67
2018-11-05T20:40:37.252Z,41.48
2018-11-05T20:43:06.322Z,39.40
2018-11-05T20:45:34.501Z,45.35
2018-11-05T20:48:03.538Z,38.48
2018-11-05T20:50:31.743Z,34.90
2018-11-05T20:52:59.945Z,38.35
2018-11-05T20:55:28.222Z,34.78
2018-11-05T20:57:56.612Z,32.93
2018-11-05T21:00:25.482Z,34.83
2018-11-05T21:02:53.773Z,37.03
2018-11-05T21:05:22.059Z,31.80
2018-11-05T21:07:50.257Z,36.00
2018-11-05T21:10:18.724Z,36.00
2018-11-05T21:12:47.906Z,30.55
2018-11-05T21:15:17.459Z,30.80
2018-11-05T21:17:46.963Z,28.42
2018-11-05T21:20:15.426Z,27.13
2018-11-05T21:22:44.118Z,31.85
2018-11-05T21:25:12.341Z,29.70
2018-11-05T21:27:41.393Z,28.23
2018-11-05T21:30:12.775Z,28.02
2018-11-05T21:32:41.039Z,30.20
2018-11-05T21:35:11.433Z,28.67
2018-11-05T21:37:40.042Z,25.48
2018-11-05T21:40:09.020Z,34.65
2018-11-05T21:42:37.605Z,25.92
2018-11-05T21:45:07.254Z,27.95
2018-11-05T21:47:35.599Z,30.55
2018-11-05T21:50:04.799Z,28.87
2018-11-05T21:52:32.947Z,26.65
2018-11-05T21:55:02.609Z,26.23
2018-11-05T21:57:30.842Z,34.03
2018-11-05T21:59:59.081Z,26.93
2018-11-05T22:02:27.305Z,24.98
2018-11-05T22:04:55.628Z,24.67
2018-11-05T22:07:23.846Z,25.27
2018-11-05T22:09:53.122Z,28.12
2018-11-05T22:12:21.387Z,27.95
2018-11-05T22:14:49.571Z,24.15
2018-11-05T22:17:17.737Z,26.00
2018-11-05T22:19:45.930Z,25.08
2018-11-05T22:22:14.130Z,26.37
2018-11-05T22:24:42.330Z,27.70
2018-11-05T22:27:10.799Z,24.92
2018-11-05T22:29:38.972Z,32.53
2018-11-05T22:32:07.131Z,25.80
2018-11-05T22:34:35.317Z,25.57
2018-11-05T22:37:03.906Z,26.40
2018-11-05T22:39:32.082Z,25.08
2018-11-05T22:42:00.346Z,24.75
2018-11-05T22:44:28.534Z,23.30
2018-11-05T22:46:56.780Z,24.60
2018-11-05T22:49:24.933Z,26.77
2018-11-05T22:51:53.364Z,25.05
2018-11-05T22:54:21.546Z,26.70
2018-11-05T22:56:49.759Z,23.98
2018-11-05T22:59:17.938Z,24.85
2018-11-05T23:01:52.206Z,25.30
2018-11-05T23:04:20.378Z,23.83
2018-11-05T23:06:49.186Z,24.63
2018-11-05T23:09:17.810Z,21.87
2018-11-05T23:11:46.841Z,22.60
2018-11-05T23:14:15.246Z,24.57
2018-11-05T23:16:43.430Z,27.80
2018-11-05T23:19:11.625Z,26.90
2018-11-05T23:21:39.800Z,23.60
2018-11-05T23:24:08.008Z,26.73
2018-11-05T23:26:36.181Z,24.52
2018-11-05T23:29:04.606Z,21.30
2018-11-05T23:31:32.773Z,26.75
2018-11-05T23:34:00.978Z,31.20
2018-11-05T23:36:29.570Z,21.25
2018-11-05T23:38:57.773Z,28.90
2018-11-05T23:41:25.965Z,21.85
2018-11-05T23:43:54.130Z,26.33
2018-11-05T23:46:22.309Z,23.83
2018-11-05T23:48:50.498Z,24.00
2018-11-05T23:51:18.685Z,21.80
2018-11-05T23:53:46.890Z,21.62
2018-11-05T23:56:15.065Z,22.22
2018-11-05T23:58:43.256Z,22.48
